Time;durP1;ratioP1;P1;durP2;ratioP2;P2;SDS_P1;SDS_P2;PMS_P1;PMS_P2;Temp;Humidity;BMP_temperature;BMP_pressure;BME280_temperature;BME280_humidity;BME280_pressure;Samples;Min_cycle;Max_cycle;Signal;HPM_P1;HPM_P2
2023/04/30 00:00:39;;;;;;;12.98;8.95;;;;;;;;;;10356992;28;20073;-85
2023/04/30 00:05:43;;;;;;;14.20;8.82;;;;;;;;;;10373730;28;20145;-85
2023/04/30 00:10:48;;;;;;;15.68;9.25;;;;;;;;;;10340670;28;20056;-85
2023/04/30 00:15:51;;;;;;;13.52;8.55;;;;;;;;;;10341945;28;20743;-85
2023/04/30 00:20:55;;;;;;;12.77;8.02;;;;;;;;;;10340646;28;20052;-85
2023/04/30 00:25:59;;;;;;;10.68;7.30;;;;;;;;;;10376526;28;20045;-87
2023/04/30 00:31:05;;;;;;;10.75;7.60;;;;;;;;;;10361619;28;20073;-85
2023/04/30 00:36:10;;;;;;;11.63;7.25;;;;;;;;;;10342596;28;20529;-87
2023/04/30 00:41:16;;;;;;;8.50;6.30;;;;;;;;;;10376317;28;20050;-84
2023/04/30 00:46:19;;;;;;;15.80;8.33;;;;;;;;;;10345408;28;20431;-86
2023/04/30 00:51:23;;;;;;;11.73;7.35;;;;;;;;;;10343390;28;20132;-84
2023/04/30 00:56:29;;;;;;;12.32;7.82;;;;;;;;;;10340484;28;20427;-85
2023/04/30 01:01:33;;;;;;;10.65;7.13;;;;;;;;;;10353995;28;20511;-85
2023/04/30 01:06:37;;;;;;;11.20;8.05;;;;;;;;;;10347809;28;20088;-85
2023/04/30 01:11:56;;;;;;;11.88;7.60;;;;;;;;;;10366049;28;20103;-84
2023/04/30 01:17:06;;;;;;;14.23;7.60;;;;;;;;;;10352224;28;20132;-87
2023/04/30 01:22:14;;;;;;;12.93;7.65;;;;;;;;;;10348366;28;20042;-84
2023/04/30 01:27:32;;;;;;;10.43;7.13;;;;;;;;;;10343514;28;20041;-87
2023/04/30 01:32:37;;;;;;;10.63;7.43;;;;;;;;;;10344335;28;20049;-85
2023/04/30 01:37:59;;;;;;;14.15;8.18;;;;;;;;;;10349411;28;20054;-85
2023/04/30 01:48:48;;;;;;;9.43;6.60;;;;;;;;;;10451305;23;20049;-82
2023/04/30 01:53:55;;;;;;;9.55;6.22;;;;;;;;;;10423908;28;20083;-83
2023/04/30 01:59:00;;;;;;;10.25;6.28;;;;;;;;;;10421462;28;20072;-82
2023/04/30 02:04:05;;;;;;;13.48;7.85;;;;;;;;;;10421874;28;20526;-83
2023/04/30 02:09:09;;;;;;;12.32;8.13;;;;;;;;;;10435499;28;20646;-82
2023/04/30 02:14:12;;;;;;;10.70;6.78;;;;;;;;;;10424427;28;20559;-82
2023/04/30 02:19:17;;;;;;;9.70;6.88;;;;;;;;;;10421686;28;20048;-82
2023/04/30 02:24:20;;;;;;;10.18;6.60;;;;;;;;;;10424281;28;20037;-82
2023/04/30 02:29:24;;;;;;;10.13;7.03;;;;;;;;;;10420580;28;20049;-82
2023/04/30 02:34:28;;;;;;;9.00;6.65;;;;;;;;;;10439499;28;20052;-82
2023/04/30 02:39:32;;;;;;;11.70;6.75;;;;;;;;;;10413509;28;20442;-82
2023/04/30 02:44:35;;;;;;;8.80;6.72;;;;;;;;;;10421919;28;20049;-82
2023/04/30 02:49:41;;;;;;;10.43;7.43;;;;;;;;;;10420231;28;20131;-82
2023/04/30 02:54:44;;;;;;;10.18;6.93;;;;;;;;;;10437485;28;20115;-83
2023/04/30 02:59:48;;;;;;;9.55;7.07;;;;;;;;;;10422711;28;20041;-88
2023/04/30 03:04:53;;;;;;;10.38;6.80;;;;;;;;;;10430522;28;20446;-83
2023/04/30 03:09:56;;;;;;;8.57;6.13;;;;;;;;;;10428504;28;20056;-83
2023/04/30 03:14:59;;;;;;;8.70;6.20;;;;;;;;;;10444536;28;20049;-84
2023/04/30 03:20:04;;;;;;;10.45;7.18;;;;;;;;;;10426815;28;20099;-88
2023/04/30 03:25:09;;;;;;;12.38;7.43;;;;;;;;;;10426479;28;20144;-86
2023/04/30 03:30:12;;;;;;;10.00;6.80;;;;;;;;;;10426429;28;20053;-86
2023/04/30 03:35:18;;;;;;;11.38;6.93;;;;;;;;;;10426188;28;20037;-85
2023/04/30 03:40:21;;;;;;;10.85;7.20;;;;;;;;;;10423210;28;20045;-85
2023/04/30 03:45:24;;;;;;;9.07;6.13;;;;;;;;;;10428497;28;20119;-83
2023/04/30 03:50:29;;;;;;;8.80;5.80;;;;;;;;;;10425480;28;20413;-85
2023/04/30 03:55:34;;;;;;;9.57;6.50;;;;;;;;;;10428022;28;20449;-84
2023/04/30 04:00:40;;;;;;;10.25;6.60;;;;;;;;;;10424815;28;20434;-83
2023/04/30 04:05:45;;;;;;;7.68;5.85;;;;;;;;;;10440912;28;20057;-83
2023/04/30 04:10:48;;;;;;;8.68;5.93;;;;;;;;;;10437730;28;20691;-83
2023/04/30 04:15:52;;;;;;;11.35;7.18;;;;;;;;;;10424340;28;20076;-86
2023/04/30 04:20:57;;;;;;;9.45;6.75;;;;;;;;;;10421237;28;20045;-81
2023/04/30 04:26:02;;;;;;;8.18;5.78;;;;;;;;;;10425625;28;20076;-82
2023/04/30 04:31:06;;;;;;;7.93;5.90;;;;;;;;;;10413403;28;20045;-82
2023/04/30 04:36:11;;;;;;;7.40;5.60;;;;;;;;;;10422953;28;20128;-82
2023/04/30 04:41:15;;;;;;;7.07;5.25;;;;;;;;;;10443452;28;20079;-81
2023/04/30 04:46:19;;;;;;;7.07;5.60;;;;;;;;;;10427017;28;20520;-82
2023/04/30 04:51:24;;;;;;;7.38;5.60;;;;;;;;;;10426742;28;20047;-82
2023/04/30 04:56:28;;;;;;;7.68;5.72;;;;;;;;;;10426984;28;20045;-82
2023/04/30 05:01:31;;;;;;;9.52;6.18;;;;;;;;;;10425361;28;20426;-82
2023/04/30 05:06:36;;;;;;;7.32;5.40;;;;;;;;;;10427348;28;20049;-82
2023/04/30 05:11:40;;;;;;;7.75;4.90;;;;;;;;;;10424642;28;20129;-81
2023/04/30 05:16:43;;;;;;;8.35;4.95;;;;;;;;;;10443057;28;20102;-82
2023/04/30 05:21:48;;;;;;;7.85;5.75;;;;;;;;;;10423297;28;20077;-82
2023/04/30 05:26:51;;;;;;;7.35;5.15;;;;;;;;;;10426981;28;20053;-84
2023/04/30 05:31:55;;;;;;;6.07;4.85;;;;;;;;;;10433768;28;20045;-84
2023/04/30 05:37:00;;;;;;;9.73;6.43;;;;;;;;;;10432345;28;20053;-84
2023/04/30 05:42:03;;;;;;;6.65;5.57;;;;;;;;;;10450791;28;20044;-84
2023/04/30 05:47:07;;;;;;;9.02;6.43;;;;;;;;;;10450263;28;20111;-84
2023/04/30 05:52:14;;;;;;;6.68;5.43;;;;;;;;;;10430509;28;20449;-84
2023/04/30 05:57:17;;;;;;;7.78;5.32;;;;;;;;;;10432004;28;20041;-83
2023/04/30 06:02:20;;;;;;;7.82;6.13;;;;;;;;;;10448338;28;20574;-88
2023/04/30 06:07:25;;;;;;;7.47;5.72;;;;;;;;;;10430848;28;20049;-84
2023/04/30 06:12:29;;;;;;;6.68;4.88;;;;;;;;;;10452745;28;20128;-84
2023/04/30 06:17:32;;;;;;;7.50;5.75;;;;;;;;;;10431170;28;20072;-84
2023/04/30 06:22:39;;;;;;;7.05;5.72;;;;;;;;;;10431048;28;20106;-88
2023/04/30 06:27:43;;;;;;;7.38;4.65;;;;;;;;;;10431777;28;20128;-85
2023/04/30 06:32:46;;;;;;;6.85;5.30;;;;;;;;;;10429133;28;20128;-88
2023/04/30 06:37:51;;;;;;;7.95;5.15;;;;;;;;;;10424378;28;20045;-84
2023/04/30 06:42:54;;;;;;;7.18;5.03;;;;;;;;;;10430396;28;20056;-84
2023/04/30 06:47:58;;;;;;;5.85;5.05;;;;;;;;;;10429058;28;20063;-85
2023/04/30 06:53:05;;;;;;;5.18;4.05;;;;;;;;;;10442021;28;20072;-82
2023/04/30 06:58:09;;;;;;;4.80;3.78;;;;;;;;;;10437543;28;20135;-82
2023/04/30 07:03:12;;;;;;;5.20;3.97;;;;;;;;;;10419537;28;20055;-83
2023/04/30 07:08:17;;;;;;;6.25;4.07;;;;;;;;;;10408274;28;20084;-82
2023/04/30 07:13:21;;;;;;;5.35;4.40;;;;;;;;;;10435402;28;20064;-85
2023/04/30 07:18:24;;;;;;;5.82;4.78;;;;;;;;;;10415968;28;20063;-83
2023/04/30 07:23:29;;;;;;;6.00;4.22;;;;;;;;;;10439018;28;20045;-83
2023/04/30 07:28:33;;;;;;;5.50;4.20;;;;;;;;;;10430714;28;20045;-82
2023/04/30 07:33:36;;;;;;;4.82;3.53;;;;;;;;;;10449081;28;20079;-83
2023/04/30 07:38:41;;;;;;;4.50;3.70;;;;;;;;;;10423081;28;20108;-83
2023/04/30 07:55:19;;;;;;;4.40;3.08;;;;;;;;;;10480713;28;20056;-82
2023/04/30 08:01:11;;;;;;;6.28;4.00;;;;;;;;;;10465890;22;20044;-82
2023/04/30 08:07:14;;;;;;;3.92;3.03;;;;;;;;;;10395407;28;20511;-82
2023/04/30 08:12:40;;;;;;;4.60;4.10;;;;;;;;;;10579463;22;20044;-82
2023/04/30 08:18:04;;;;;;;4.80;3.70;;;;;;;;;;10472757;28;20083;-82
2023/04/30 08:29:18;;;;;;;3.13;2.53;;;;;;;;;;10492760;22;20061;-85
2023/04/30 08:34:21;;;;;;;3.47;2.95;;;;;;;;;;10404889;28;20054;-85
2023/04/30 08:39:25;;;;;;;4.75;2.83;;;;;;;;;;10402970;28;20148;-85
2023/04/30 08:44:32;;;;;;;4.18;2.72;;;;;;;;;;10419467;28;20044;-84
2023/04/30 08:49:35;;;;;;;5.05;2.60;;;;;;;;;;10383309;28;20046;-85
2023/04/30 08:54:39;;;;;;;3.88;2.83;;;;;;;;;;10388028;28;20459;-83
2023/04/30 08:59:46;;;;;;;5.35;3.10;;;;;;;;;;10363791;28;20045;-83
2023/04/30 09:04:50;;;;;;;3.22;2.22;;;;;;;;;;10369528;28;20045;-83
2023/04/30 09:09:54;;;;;;;2.80;2.30;;;;;;;;;;10375018;28;20410;-83
2023/04/30 09:15:03;;;;;;;2.30;1.98;;;;;;;;;;10400967;28;20042;-87
2023/04/30 09:20:08;;;;;;;3.63;2.10;;;;;;;;;;10379505;28;20132;-89
2023/04/30 09:25:11;;;;;;;2.95;1.70;;;;;;;;;;10404017;28;20407;-85
2023/04/30 09:30:31;;;;;;;4.80;2.13;;;;;;;;;;10422671;28;20052;-88
2023/04/30 09:35:36;;;;;;;1.40;1.25;;;;;;;;;;10394851;28;20081;-85
2023/04/30 09:40:40;;;;;;;2.40;2.00;;;;;;;;;;10426983;28;20041;-89
2023/04/30 09:45:48;;;;;;;2.65;1.80;;;;;;;;;;10391077;28;20041;-86
2023/04/30 09:50:52;;;;;;;2.35;1.98;;;;;;;;;;10410298;28;20064;-88
2023/04/30 09:55:58;;;;;;;1.58;1.25;;;;;;;;;;10412377;28;20049;-83
2023/04/30 10:01:05;;;;;;;1.60;1.27;;;;;;;;;;10410279;28;20138;-84
2023/04/30 10:06:12;;;;;;;2.60;1.52;;;;;;;;;;10391058;28;20072;-85
2023/04/30 10:11:16;;;;;;;;;;;;;;;;;;10383734;28;20061;-84
2023/04/30 10:16:40;;;;;;;1.23;1.02;;;;;;;;;;10390087;28;20290;-82
2023/04/30 10:21:47;;;;;;;1.67;1.02;;;;;;;;;;10418192;28;20045;-86
2023/04/30 10:26:52;;;;;;;1.60;1.00;;;;;;;;;;10406244;28;20415;-83
2023/04/30 10:31:58;;;;;;;2.97;1.25;;;;;;;;;;10386202;28;20049;-82
2023/04/30 10:37:07;;;;;;;0.80;0.77;;;;;;;;;;10421836;28;20053;-82
2023/04/30 10:42:12;;;;;;;1.02;0.82;;;;;;;;;;10386611;28;20172;-85
2023/04/30 10:47:18;;;;;;;1.23;0.90;;;;;;;;;;10421013;28;20132;-87
2023/04/30 10:58:44;;;;;;;0.55;0.50;;;;;;;;;;10382156;28;20048;-83
2023/04/30 11:04:07;;;;;;;0.88;0.47;;;;;;;;;;10386444;28;20045;-85
2023/04/30 11:09:11;;;;;;;1.23;0.77;;;;;;;;;;10401860;28;20053;-83
2023/04/30 11:14:21;;;;;;;1.10;0.60;;;;;;;;;;10403168;28;20053;-86
2023/04/30 11:19:28;;;;;;;0.60;0.60;;;;;;;;;;10384172;28;20080;-83
2023/04/30 11:24:55;;;;;;;0.85;0.63;;;;;;;;;;10394704;28;20053;-84
2023/04/30 11:30:00;;;;;;;1.30;0.60;;;;;;;;;;10398489;28;20069;-84
2023/04/30 11:35:07;;;;;;;0.90;0.70;;;;;;;;;;10378856;28;20049;-83
2023/04/30 11:40:12;;;;;;;0.60;0.60;;;;;;;;;;10380143;28;20499;-86
2023/04/30 11:45:19;;;;;;;0.30;0.30;;;;;;;;;;10379279;28;20049;-85
2023/04/30 11:50:27;;;;;;;0.45;0.40;;;;;;;;;;10407623;28;20065;-83
2023/04/30 11:55:31;;;;;;;0.63;0.60;;;;;;;;;;10377367;28;20049;-82
2023/04/30 12:00:34;;;;;;;0.50;0.38;;;;;;;;;;10377792;28;20049;-83
2023/04/30 12:05:41;;;;;;;0.45;0.25;;;;;;;;;;10407728;28;20052;-82
2023/04/30 12:10:46;;;;;;;0.20;0.20;;;;;;;;;;10394122;28;20115;-83
2023/04/30 12:15:59;;;;;;;0.20;0.20;;;;;;;;;;10377487;28;20073;-80
2023/04/30 12:21:04;;;;;;;0.30;0.30;;;;;;;;;;10381672;28;20549;-80
2023/04/30 12:26:08;;;;;;;0.55;0.30;;;;;;;;;;10368743;28;20049;-80
2023/04/30 12:31:11;;;;;;;0.47;0.28;;;;;;;;;;10409209;28;20053;-80
2023/04/30 12:36:16;;;;;;;0.30;0.28;;;;;;;;;;10375373;28;20598;-80
2023/04/30 12:41:20;;;;;;;0.85;0.28;;;;;;;;;;10386222;28;20061;-80
2023/04/30 12:46:28;;;;;;;0.90;0.30;;;;;;;;;;10394535;28;20533;-80
2023/04/30 12:51:36;;;;;;;0.30;0.20;;;;;;;;;;10369059;28;20053;-80
2023/04/30 12:56:56;;;;;;;0.10;0.10;;;;;;;;;;10376097;28;20136;-80
2023/04/30 13:02:13;;;;;;;0.57;0.38;;;;;;;;;;10401168;28;20157;-80
2023/04/30 13:07:19;;;;;;;0.80;0.25;;;;;;;;;;10396166;28;20053;-81
2023/04/30 13:12:22;;;;;;;0.10;0.10;;;;;;;;;;10393887;28;20049;-80
2023/04/30 13:17:29;;;;;;;0.90;0.30;;;;;;;;;;10398022;28;20312;-81
2023/04/30 13:22:38;;;;;;;0.60;0.30;;;;;;;;;;10391324;28;20080;-81
2023/04/30 13:27:50;;;;;;;0.30;0.30;;;;;;;;;;10377193;28;20060;-80
2023/04/30 13:32:54;;;;;;;0.47;0.30;;;;;;;;;;10381834;28;20049;-80
2023/04/30 13:38:00;;;;;;;0.20;0.20;;;;;;;;;;10406072;28;20053;-80
2023/04/30 13:43:04;;;;;;;0.63;0.38;;;;;;;;;;10399406;23;20103;-86
2023/04/30 13:48:07;;;;;;;0.40;0.28;;;;;;;;;;10501164;28;20134;-87
2023/04/30 13:53:12;;;;;;;0.20;0.20;;;;;;;;;;10529469;28;20135;-86
2023/04/30 13:58:15;;;;;;;0.20;0.10;;;;;;;;;;10517801;28;20159;-86
2023/04/30 14:03:19;;;;;;;0.20;0.10;;;;;;;;;;10521704;28;20044;-87
2023/04/30 14:08:23;;;;;;;0.63;0.20;;;;;;;;;;10538417;28;20048;-86
2023/04/30 14:13:29;;;;;;;0.47;0.20;;;;;;;;;;10528384;28;20160;-86
2023/04/30 14:18:33;;;;;;;0.45;0.30;;;;;;;;;;10543331;28;20646;-86
2023/04/30 14:23:38;;;;;;;1.13;0.40;;;;;;;;;;10535921;28;20102;-87
2023/04/30 14:28:41;;;;;;;0.30;0.10;;;;;;;;;;10520764;28;20155;-87
2023/04/30 14:33:45;;;;;;;0.55;0.30;;;;;;;;;;10522100;28;20086;-86
2023/04/30 14:38:50;;;;;;;0.55;0.30;;;;;;;;;;10525579;28;20043;-86
2023/04/30 14:43:53;;;;;;;0.45;0.20;;;;;;;;;;10524351;28;20059;-87
2023/04/30 14:48:57;;;;;;;0.65;0.32;;;;;;;;;;10538215;28;20096;-86
2023/04/30 14:54:02;;;;;;;0.25;0.10;;;;;;;;;;10519668;28;20076;-86
2023/04/30 14:59:06;;;;;;;0.20;0.10;;;;;;;;;;10523483;28;20052;-86
2023/04/30 15:04:09;;;;;;;0.25;0.20;;;;;;;;;;10519769;28;20630;-86
2023/04/30 15:09:14;;;;;;;0.10;0.10;;;;;;;;;;10519134;28;20072;-86
2023/04/30 15:14:17;;;;;;;0.40;0.20;;;;;;;;;;10519005;28;20058;-86
2023/04/30 15:19:21;;;;;;;0.20;0.20;;;;;;;;;;10519333;28;20076;-86
2023/04/30 15:24:26;;;;;;;0.10;0.10;;;;;;;;;;10518781;28;20418;-86
2023/04/30 15:29:31;;;;;;;0.20;0.20;;;;;;;;;;10518203;28;20060;-86
2023/04/30 15:34:34;;;;;;;0.68;0.20;;;;;;;;;;10515925;28;20051;-86
2023/04/30 15:39:39;;;;;;;0.20;0.20;;;;;;;;;;10529320;28;20044;-86
2023/04/30 15:44:42;;;;;;;0.65;0.20;;;;;;;;;;10517224;28;20036;-86
2023/04/30 15:49:47;;;;;;;0.22;0.13;;;;;;;;;;10517395;28;20075;-86
2023/04/30 15:54:52;;;;;;;0.35;0.22;;;;;;;;;;10517388;28;20056;-86
2023/04/30 15:59:56;;;;;;;0.20;0.20;;;;;;;;;;10534472;28;20048;-86
2023/04/30 16:05:00;;;;;;;0.43;0.20;;;;;;;;;;10535445;28;20044;-87
2023/04/30 16:10:06;;;;;;;0.80;0.20;;;;;;;;;;10534492;28;20059;-86
2023/04/30 16:15:11;;;;;;;0.77;0.20;;;;;;;;;;10525043;28;20078;-86
2023/04/30 16:20:14;;;;;;;0.20;0.20;;;;;;;;;;10533789;28;20131;-86
2023/04/30 16:25:20;;;;;;;0.10;0.10;;;;;;;;;;10516602;28;20467;-85
2023/04/30 16:30:23;;;;;;;0.10;0.10;;;;;;;;;;10533810;28;20075;-85
2023/04/30 16:35:27;;;;;;;0.17;0.10;;;;;;;;;;10530381;28;20056;-86
2023/04/30 16:40:31;;;;;;;0.30;0.10;;;;;;;;;;10523465;28;20575;-86
2023/04/30 16:45:35;;;;;;;0.30;0.20;;;;;;;;;;10513418;28;20105;-86
2023/04/30 16:50:39;;;;;;;0.20;0.20;;;;;;;;;;10523884;28;20553;-86
2023/04/30 16:55:43;;;;;;;0.68;0.38;;;;;;;;;;10514033;28;20222;-86
2023/04/30 17:00:48;;;;;;;0.75;0.20;;;;;;;;;;10524491;28;20060;-85
2023/04/30 17:05:52;;;;;;;0.65;0.28;;;;;;;;;;10523488;28;20048;-86
2023/04/30 17:10:57;;;;;;;0.40;0.22;;;;;;;;;;10541709;28;20511;-86
2023/04/30 17:16:01;;;;;;;0.55;0.30;;;;;;;;;;10527464;28;20047;-85
2023/04/30 17:21:04;;;;;;;0.28;0.20;;;;;;;;;;10515049;28;20056;-86
2023/04/30 17:26:10;;;;;;;0.88;0.52;;;;;;;;;;10536419;28;20036;-86
2023/04/30 17:31:13;;;;;;;1.07;0.40;;;;;;;;;;10543956;28;20135;-86
2023/04/30 17:36:17;;;;;;;0.60;0.50;;;;;;;;;;10543816;28;20518;-86
2023/04/30 17:41:22;;;;;;;0.65;0.40;;;;;;;;;;10518737;28;20109;-86
2023/04/30 17:46:26;;;;;;;0.50;0.47;;;;;;;;;;10546864;28;20040;-86
2023/04/30 17:51:30;;;;;;;0.60;0.43;;;;;;;;;;10541898;28;20101;-85
2023/04/30 17:56:35;;;;;;;0.80;0.35;;;;;;;;;;10538433;28;20063;-85
2023/04/30 18:01:39;;;;;;;0.35;0.35;;;;;;;;;;10535210;28;20064;-86
2023/04/30 18:06:42;;;;;;;0.43;0.40;;;;;;;;;;10540737;28;20094;-86
2023/04/30 18:11:47;;;;;;;0.20;0.20;;;;;;;;;;10529524;28;20058;-86
2023/04/30 18:16:51;;;;;;;4.97;0.80;;;;;;;;;;10549930;28;20478;-86
2023/04/30 18:21:55;;;;;;;0.80;0.30;;;;;;;;;;10538284;28;20054;-86
2023/04/30 18:27:00;;;;;;;0.65;0.30;;;;;;;;;;10534847;28;20334;-86
2023/04/30 18:32:03;;;;;;;0.20;0.20;;;;;;;;;;10529304;28;20679;-86
2023/04/30 18:37:07;;;;;;;1.00;0.57;;;;;;;;;;10538570;28;20044;-86
2023/04/30 18:42:12;;;;;;;0.45;0.30;;;;;;;;;;10537262;28;20403;-85
2023/04/30 18:47:16;;;;;;;0.38;0.38;;;;;;;;;;10518659;28;20043;-85
2023/04/30 18:52:19;;;;;;;0.20;0.20;;;;;;;;;;10512412;28;20040;-86
2023/04/30 18:57:24;;;;;;;0.28;0.28;;;;;;;;;;10512102;28;20048;-86
2023/04/30 19:02:28;;;;;;;0.20;0.20;;;;;;;;;;10519659;28;20056;-86
2023/04/30 19:07:31;;;;;;;0.30;0.30;;;;;;;;;;10511177;28;20048;-85
2023/04/30 19:12:36;;;;;;;1.38;0.35;;;;;;;;;;10519464;28;20097;-85
2023/04/30 19:17:39;;;;;;;0.77;0.30;;;;;;;;;;10539922;28;20076;-86
2023/04/30 19:22:43;;;;;;;0.38;0.35;;;;;;;;;;10520388;28;20040;-86
2023/04/30 19:27:47;;;;;;;0.40;0.40;;;;;;;;;;10524716;28;20067;-86
2023/04/30 19:32:52;;;;;;;0.47;0.40;;;;;;;;;;10519359;28;20624;-85
2023/04/30 19:37:56;;;;;;;0.47;0.40;;;;;;;;;;10518979;28;20044;-86
2023/04/30 19:43:10;;;;;;;1.33;0.70;;;;;;;;;;10571201;22;20056;-87
2023/04/30 19:48:13;;;;;;;0.80;0.50;;;;;;;;;;10287405;28;20051;-86
2023/04/30 19:53:17;;;;;;;0.80;0.80;;;;;;;;;;10343017;28;20077;-84
2023/04/30 19:58:22;;;;;;;0.63;0.60;;;;;;;;;;10335423;28;20547;-83
2023/04/30 20:03:26;;;;;;;0.82;0.80;;;;;;;;;;10353964;28;20133;-83
2023/04/30 20:08:29;;;;;;;1.92;0.80;;;;;;;;;;10369973;28;20056;-82
2023/04/30 20:13:34;;;;;;;0.95;0.70;;;;;;;;;;10379706;28;20136;-84
2023/04/30 20:18:37;;;;;;;1.42;1.02;;;;;;;;;;10365211;28;20067;-82
2023/04/30 20:23:41;;;;;;;2.00;1.70;;;;;;;;;;10376098;28;21162;-82
2023/04/30 20:28:46;;;;;;;2.63;1.63;;;;;;;;;;10383624;28;20113;-82
2023/04/30 20:33:56;;;;;;;2.10;1.50;;;;;;;;;;10386003;28;20077;-84
2023/04/30 20:39:00;;;;;;;3.58;1.50;;;;;;;;;;10368091;28;20650;-82
2023/04/30 20:44:07;;;;;;;1.33;1.23;;;;;;;;;;10381130;28;20045;-82
2023/04/30 20:49:13;;;;;;;1.83;1.10;;;;;;;;;;10380388;28;20469;-87
2023/04/30 21:01:03;;;;;;;1.00;0.75;;;;;;;;;;10227037;28;20126;-84
2023/04/30 21:06:16;;;;;;;2.92;1.10;;;;;;;;;;10371933;28;20519;-83
2023/04/30 21:11:19;;;;;;;1.27;0.90;;;;;;;;;;10358470;28;20320;-83
2023/04/30 21:16:24;;;;;;;1.52;1.00;;;;;;;;;;10384911;28;20554;-83
2023/04/30 21:21:28;;;;;;;0.70;0.60;;;;;;;;;;10395165;28;20176;-85
2023/04/30 21:26:32;;;;;;;0.75;0.70;;;;;;;;;;10372101;28;20042;-86
2023/04/30 21:31:37;;;;;;;0.77;0.77;;;;;;;;;;10383140;28;20128;-83
2023/04/30 21:36:41;;;;;;;1.00;0.67;;;;;;;;;;10384112;28;20500;-83
2023/04/30 21:41:47;;;;;;;1.02;0.90;;;;;;;;;;10386161;28;20077;-82
2023/04/30 21:46:52;;;;;;;1.02;0.93;;;;;;;;;;10375188;28;20072;-87
2023/04/30 21:51:56;;;;;;;2.47;0.90;;;;;;;;;;10388404;28;20065;-83
2023/04/30 21:57:01;;;;;;;1.13;0.80;;;;;;;;;;10383028;28;20050;-86
2023/04/30 22:02:06;;;;;;;1.83;0.98;;;;;;;;;;10409606;28;20057;-83
2023/04/30 22:07:15;;;;;;;0.93;0.82;;;;;;;;;;10368654;28;20041;-83
2023/04/30 22:12:20;;;;;;;2.08;1.15;;;;;;;;;;10417658;28;20060;-85
2023/04/30 22:17:25;;;;;;;0.98;0.90;;;;;;;;;;10385008;28;20076;-86
2023/04/30 22:22:28;;;;;;;0.93;0.82;;;;;;;;;;10361752;28;20111;-85
2023/04/30 22:27:32;;;;;;;1.08;0.70;;;;;;;;;;10376848;28;20419;-86
2023/04/30 22:32:37;;;;;;;1.40;0.70;;;;;;;;;;10374917;28;20076;-84
2023/04/30 22:37:40;;;;;;;1.05;0.80;;;;;;;;;;10366363;28;20061;-86
2023/04/30 22:42:44;;;;;;;1.45;0.80;;;;;;;;;;10395311;28;20049;-85
2023/04/30 22:47:48;;;;;;;0.80;0.80;;;;;;;;;;10359962;28;20423;-84
2023/04/30 22:52:55;;;;;;;0.68;0.63;;;;;;;;;;10365429;28;20049;-83
2023/04/30 22:57:58;;;;;;;2.45;0.70;;;;;;;;;;10385403;28;20733;-84
2023/04/30 23:03:03;;;;;;;1.58;0.80;;;;;;;;;;10378883;28;20054;-83
2023/04/30 23:08:07;;;;;;;0.85;0.80;;;;;;;;;;10371780;28;20046;-83
2023/04/30 23:13:12;;;;;;;1.27;0.73;;;;;;;;;;10368111;28;20049;-84
2023/04/30 23:18:18;;;;;;;0.88;0.73;;;;;;;;;;10383569;28;20049;-85
2023/04/30 23:23:22;;;;;;;;;;;;;;;;;;10375150;28;20056;-87
2023/04/30 23:28:25;;;;;;;1.17;0.75;;;;;;;;;;10368294;28;19921;-84
2023/04/30 23:33:30;;;;;;;0.73;0.73;;;;;;;;;;10388129;28;20053;-84
2023/04/30 23:38:33;;;;;;;0.75;0.70;;;;;;;;;;10351687;28;20056;-84
2023/04/30 23:43:37;;;;;;;0.98;0.77;;;;;;;;;;10375724;28;20049;-81
2023/04/30 23:48:41;;;;;;;1.75;1.05;;;;;;;;;;10383221;28;20734;-81
2023/04/30 23:53:45;;;;;;;1.48;0.90;;;;;;;;;;10384410;28;20472;-81
2023/04/30 23:58:48;;;;;;;1.15;1.00;;;;;;;;;;10371187;28;20145;-81
